Tiempo atmosférico en la estación meteorológica de Aller, Asturias (750 m.)



Fecha
DESCASC
Temp. máxima en grados centígrados (hora)
DESCASC
Temp. mínima en grados centígrados (hora)
DESCASC
Temp. media en grados centígrados
DESCASC
Racha de viento máxima en m/sg (hora)
DESCASC
Velocidad máxima media en intervalos de 10 minutos(hora)
DESCASC
Precipitaciones diarias en mm
DESCASC
Precipitaciones de 00:00 a 06:00 en mm
DESCASC
Precipitaciones de 06:00 a 12:00 en mm
DESCASC
Precipitaciones de 12:00 a 18:00 en mm
DESCASC
Precipitaciones de 18:00 a 24:00 en mm
DESCASC

Gráficas

Temp. máximas Temp. mínimas Temp. medias Precipitaciones Rachas de viento máximas Velocidades máximas media en intervalos de 10 minutos

Datos horarios

Fecha y hora oficial Temperatura (ºC) Velocidad del viento (km/h) Dirección del viento Racha (km/h) Dirección de racha Precipitación (mm) Presión (hPa) Tendencia (hPa) Humedad (%)
2020-04-07 23:00:00 10.3 0 Calma 9 Noroeste 0 -- -- 96
2020-04-07 22:00:00 11.2 5 Nordeste 10 Este 1.4 -- -- 94
2020-04-07 21:00:00 11.8 2 Norte 14 Norte 1.8 -- -- 93
2020-04-07 20:00:00 13.6 11 Norte 24 Noroeste 0 -- -- 85
2020-04-07 19:00:00 15.9 6 Norte 18 Sudeste 0 -- -- 76
2020-04-07 18:00:00 17.7 0 Calma 18 Sur 0 -- -- 57
2020-04-07 17:00:00 17.4 4 Este 21 Nordeste 0 -- -- 59
2020-04-07 16:00:00 18.2 8 Sudeste 22 Sudeste 0 -- -- 54
2020-04-07 15:00:00 17.8 8 Sudeste 24 Sur 0 -- -- 55
2020-04-07 14:00:00 17.4 5 Sudeste 16 Sudeste 0 -- -- 56
2020-04-07 13:00:00 18 10 Sudeste 23 Este 0 -- -- 55
2020-04-07 12:00:00 16.1 2 Oeste 10 Noroeste 0 -- -- 64
2020-04-07 11:00:00 11 3 Norte 6 Norte 0 -- -- 93
2020-04-07 10:00:00 6.7 0 Calma 11 Sudeste 0 -- -- 100
2020-04-07 09:00:00 6 4 Sudeste 10 Sudeste 0 -- -- 100
2020-04-07 08:00:00 6.3 3 Sur 10 Sudeste 0 -- -- 99
2020-04-07 07:00:00 7.1 0 Calma 8 Sudeste 0 -- -- 99
2020-04-07 06:00:00 7.7 3 Nordeste 8 Sudeste 0 -- -- 100
2020-04-07 05:00:00 7.8 3 Sudeste 11 Sur 0.2 -- -- 100
2020-04-07 04:00:00 7.6 2 Noroeste 6 Sudoeste 0 -- -- 100
2020-04-07 03:00:00 7.9 3 Sur 6 Este 0 -- -- 100
2020-04-07 02:00:00 8.2 0 Calma 4 Sudeste 0 -- -- 99
2020-04-07 01:00:00 8.6 0 Calma 3 Norte 0 -- -- 99
2020-04-07 00:00:00 9 0 Calma 5 Noroeste 0 -- -- 99
2020-04-06 23:00:00 9.1 2 Sudeste 4 Sur 0 -- -- 99
2020-04-06 22:00:00 9.2 2 Norte 4 Norte 0 -- -- 98
2020-04-06 21:00:00 9.3 3 Norte 6 Noroeste 0 -- -- 98
2020-04-06 20:00:00 9.5 5 Norte 11 Norte 0.8 -- -- 97
2020-04-06 19:00:00 10.1 3 Norte 15 Noroeste 1.4 -- -- 95
2020-04-06 18:00:00 11.2 4 Noroeste 9 Noroeste 0.8 -- -- 94
2020-04-06 17:00:00 11 5 Norte 12 Noroeste 0.2 -- -- 91
2020-04-06 16:00:00 10.9 6 Norte 12 Noroeste 0.2 -- -- 92
2020-04-06 15:00:00 11.4 8 Noroeste 12 Noroeste 0 -- -- 87
2020-04-06 14:00:00 11.1 4 Noroeste 12 Noroeste 0.2 -- -- 86
2020-04-06 13:00:00 10.6 6 Noroeste 9 Noroeste 0 -- -- 91
2020-04-06 12:00:00 9.1 2 Oeste 13 Noroeste 0 -- -- 97
2020-04-06 11:00:00 8.6 5 Norte 12 Norte 0.8 -- -- 100
2020-04-06 10:00:00 8.1 8 Norte 18 Norte 1 -- -- 100
2020-04-06 09:00:00 8.1 8 Norte 14 Norte 0.2 -- -- 100
2020-04-06 08:00:00 8.5 6 Norte 12 Noroeste 0.2 -- -- 99
2020-04-06 07:00:00 9 5 Noroeste 10 Noroeste 0 -- -- 99
2020-04-06 06:00:00 9.1 5 Norte 16 Noroeste 0 -- -- 98
2020-04-06 05:00:00 9 4 Noroeste 11 Noroeste 0 -- -- 95
2020-04-06 04:00:00 9.3 4 Norte 10 Sudeste 0 -- -- 94
2020-04-06 03:00:00 9.4 0 Calma 9 Sudeste 0 -- -- 94
2020-04-06 02:00:00 9.5 5 Sudeste 12 Sudeste 0 -- -- 93
2020-04-06 01:00:00 9.3 3 Sudeste 7 Sudeste 0 -- -- 93
2020-04-06 00:00:00 10.4 2 Noroeste 13 Sudeste 0 -- -- 88
2020-04-05 23:00:00 10 5 Sudeste 13 Sudeste 0 -- -- 91
2020-04-05 22:00:00 10 2 Nordeste 8 Oeste 0 -- -- 94
2020-04-05 21:00:00 11.1 4 Sudeste 12 Sudeste 0 -- -- 94
2020-04-05 20:00:00 11.8 2 Norte 10 Oeste 0.6 -- -- 92
2020-04-05 19:00:00 12.6 2 Sudoeste 6 Sur 1.8 -- -- 88
2020-04-05 18:00:00 14.5 4 Sur 40 Sur 0.4 -- -- 78
2020-04-05 17:00:00 15.8 9 Sur 44 Sudeste 0 -- -- 65
2020-04-05 16:00:00 16 10 Sudeste 48 Sudeste 0 -- -- 57
2020-04-05 15:00:00 15.3 12 Este 42 Sur 0 -- -- 59
2020-04-05 14:00:00 14.3 8 Sudeste 38 Este 0 -- -- 61
2020-04-05 13:00:00 13.9 8 Sudeste 34 Sur 0 -- -- 63
2020-04-05 12:00:00 13.5 12 Este 41 Sudeste 0 -- -- 63
2020-04-05 11:00:00 13 13 Sudeste 48 Sur 0 -- -- 61
2020-04-05 10:00:00 12.7 7 Este 42 Sudeste 0 -- -- 64
2020-04-05 09:00:00 12.7 13 Este 50 Sudeste 0 -- -- 62
2020-04-05 08:00:00 12.5 6 Sudeste 40 Sudeste 0 -- -- 62
2020-04-05 07:00:00 12.8 5 Nordeste 27 Norte 0 -- -- 58
2020-04-05 06:00:00 12.9 7 Sudeste 48 Sudeste 0 -- -- 54
2020-04-05 05:00:00 13.1 12 Este 50 Sudeste 0 -- -- 55
2020-04-05 04:00:00 13.4 11 Este 34 Sudeste 0 -- -- 53
2020-04-05 03:00:00 13.8 12 Sudeste 40 Sudeste 0 -- -- 50
2020-04-05 02:00:00 14.1 6 Nordeste 37 Este 0 -- -- 48
2020-04-05 01:00:00 13.2 6 Noroeste 32 Sudeste 0 -- -- 51
2020-04-05 00:00:00 14.3 11 Norte 37 Sudeste 0 -- -- 48
2020-04-04 23:00:00 13.4 6 Este 19 Oeste 0 -- -- 49
2020-04-04 22:00:00 14.7 6 Sur 26 Sudeste 0 -- -- 43
2020-04-04 21:00:00 14.6 2 Sur 19 Sur 0 -- -- 49
2020-04-04 20:00:00 15.7 4 Norte 16 Nordeste 0 -- -- 54
2020-04-04 19:00:00 16.7 9 Este 27 Sur 0 -- -- 42
2020-04-04 18:00:00 18.4 10 Este 40 Nordeste 0 -- -- 33
2020-04-04 17:00:00 19 7 Sudoeste 25 Sur 0 -- -- 36
2020-04-04 16:00:00 19.4 5 Sudoeste 39 Nordeste 0 -- -- 31
2020-04-04 15:00:00 18.3 13 Sur 33 Sudeste 0 -- -- 33
2020-04-04 14:00:00 17.9 8 Sudeste 32 Nordeste 0 -- -- 33
2020-04-04 13:00:00 17 11 Sudeste 32 Este 0 -- -- 38
2020-04-04 12:00:00 15.9 8 Nordeste 22 Sudeste 0 -- -- 44
2020-04-04 11:00:00 12.6 6 Este 22 Sudeste 0 -- -- 49
2020-04-04 10:00:00 9.2 9 Este 22 Sudeste 0 -- -- 49
2020-04-04 09:00:00 8.6 12 Sudeste 28 Sudeste 0 -- -- 49
2020-04-04 08:00:00 8.3 9 Sudeste 28 Sudeste 0 -- -- 49
2020-04-04 07:00:00 6.5 7 Sudeste 18 Sur 0 -- -- 56
2020-04-04 06:00:00 3.9 0 Calma 10 Sudeste 0 -- -- 77
2020-04-04 05:00:00 4.5 5 Sudeste 9 Este 0 -- -- 76
2020-04-04 04:00:00 6 4 Sudeste 14 Sudeste 0 -- -- 68
2020-04-04 03:00:00 5.8 5 Sudeste 12 Este 0 -- -- 69
2020-04-04 02:00:00 5.6 5 Este 11 Este 0 -- -- 81
2020-04-04 01:00:00 4.3 3 Sur 8 Sudeste 0 -- -- 92
2020-04-04 00:00:00 5 3 Sudeste 13 Sudeste 0 -- -- 91
2020-04-03 23:00:00 6 6 Sudeste 11 Sudeste 0 -- -- 89
2020-04-03 22:00:00 7.5 4 Sudeste 11 Sudeste 0 -- -- 86
2020-04-03 21:00:00 9.3 5 Sudeste 13 Norte 0 -- -- 82
2020-04-03 20:00:00 12.5 7 Norte 20 Noroeste 0 -- -- 70
2020-04-03 19:00:00 13.9 12 Noroeste 22 Noroeste 0 -- -- 66
2020-04-03 18:00:00 17 12 Noroeste 22 Noroeste 0 -- -- 57
2020-04-03 17:00:00 17.4 12 Noroeste 22 Noroeste 0 -- -- 55
2020-04-03 16:00:00 16.2 13 Noroeste 25 Noroeste 0 -- -- 51
2020-04-03 15:00:00 16 13 Noroeste 19 Noroeste 0 -- -- 54
2020-04-03 14:00:00 14.7 11 Noroeste 15 Noroeste 0 -- -- 59
2020-04-03 13:00:00 12.1 7 Noroeste 15 Noroeste 0 -- -- 66
2020-04-03 12:00:00 10.4 4 Noroeste 9 Oeste 0 -- -- 65
2020-04-03 11:00:00 5 2 Este 5 Este 0 -- -- 91
2020-04-03 10:00:00 0.6 2 Sudeste 9 Sudeste 0 -- -- 98
2020-04-03 09:00:00 -0.1 6 Sudeste 9 Sudeste 0 -- -- 97
2020-04-03 08:00:00 -0.2 5 Sudeste 9 Sudeste 0 -- -- 97
2020-04-03 07:00:00 0.3 4 Sudeste 9 Sudeste 0 -- -- 96
2020-04-03 06:00:00 1 3 Sudeste 9 Sur 0 -- -- 94
2020-04-03 05:00:00 1.8 5 Sudeste 9 Sudeste 0 -- -- 93
2020-04-03 04:00:00 3.3 3 Sudeste 8 Sudeste 0 -- -- 89
2020-04-03 03:00:00 4.7 0 Calma 3 Este 0 -- -- 94
2020-04-03 02:00:00 5.2 0 Calma 2 Noroeste 0 -- -- 93
2020-04-03 01:00:00 5.4 0 Calma 8 Norte 0 -- -- 91
2020-04-03 00:00:00 5.7 5 Norte 10 Norte 0 -- -- 91
2020-04-02 23:00:00 5.9 5 Norte 13 Noroeste 0 -- -- 90
2020-04-02 22:00:00 6.5 5 Norte 16 Noroeste 0 -- -- 89
2020-04-02 21:00:00 7.4 6 Norte 18 Norte 0 -- -- 85
2020-04-02 20:00:00 8.2 6 Norte 17 Noroeste 0 -- -- 84
2020-04-02 19:00:00 8.9 10 Noroeste 23 Noroeste 0 -- -- 82
2020-04-02 18:00:00 9.9 10 Noroeste 21 Noroeste 0 -- -- 75
2020-04-02 17:00:00 11 11 Noroeste 22 Noroeste 0 -- -- 72
2020-04-02 16:00:00 10.2 10 Noroeste 25 Noroeste 0 -- -- 76
2020-04-02 15:00:00 9.8 9 Noroeste 24 Noroeste 0 -- -- 79
2020-04-02 14:00:00 8.9 9 Noroeste 23 Noroeste 0.2 -- -- 84
2020-04-02 13:00:00 8.2 7 Noroeste 19 Oeste 0.4 -- -- 92
2020-04-02 12:00:00 7.7 7 Norte 21 Oeste 0.6 -- -- 94
2020-04-02 11:00:00 7.5 6 Noroeste 21 Norte 0.8 -- -- 97
2020-04-02 10:00:00 7.1 10 Noroeste 22 Norte 0.8 -- -- 99
2020-04-02 09:00:00 6.8 4 Noroeste 9 Norte 0.8 -- -- 100
2020-04-02 08:00:00 6.7 0 Calma 4 Norte 0 -- -- 100
2020-04-02 07:00:00 6.8 2 Sudeste 8 Norte 0.2 -- -- 99
2020-04-02 06:00:00 6.9 0 Calma 6 Noroeste 0 -- -- 100
2020-04-02 05:00:00 6.9 3 Noroeste 6 Noroeste 0 -- -- 100
2020-04-02 04:00:00 6.8 4 Norte 8 Norte 0.2 -- -- 100
2020-04-02 03:00:00 6.9 5 Norte 8 Norte 0 -- -- 100
2020-04-02 02:00:00 6.9 4 Norte 7 Norte 0.2 -- -- 100
2020-04-02 01:00:00 6.9 3 Norte 9 Noroeste 0.2 -- -- 99
2020-04-02 00:00:00 7 3 Norte 11 Noroeste 0.8 -- -- 99
2020-04-01 23:00:00 7.2 6 Norte 10 Noroeste 0.8 -- -- 98
2020-04-01 22:00:00 7.4 5 Norte 10 Norte 0.2 -- -- 97
2020-04-01 21:00:00 7.6 7 Norte 17 Norte 1 -- -- 96
2020-04-01 20:00:00 9 2 Norte 7 Noroeste 0.8 -- -- 91
2020-04-01 19:00:00 10 4 Noroeste 9 Noroeste 0 -- -- 81
2020-04-01 18:00:00 10.5 6 Noroeste 11 Oeste 0 -- -- 75
2020-04-01 17:00:00 10.7 5 Sudoeste 18 Noroeste 0 -- -- 70
2020-04-01 16:00:00 12 8 Noroeste 19 Noroeste 0 -- -- 66
2020-04-01 15:00:00 12.5 8 Noroeste 18 Noroeste 0 -- -- 68
2020-04-01 14:00:00 13.1 6 Noroeste 17 Este 0 -- -- 60
2020-04-01 13:00:00 12.7 3 Este 12 Sur 0 -- -- 60
2020-04-01 12:00:00 11.1 8 Noroeste 11 Noroeste 0 -- -- 75
2020-04-01 11:00:00 9.3 3 Noroeste 8 Noroeste 0 -- -- 91
2020-04-01 10:00:00 7 2 Sur 5 Sur 0 -- -- 99
2020-04-01 09:00:00 5.9 4 Sudeste 9 Sudeste 0 -- -- 99
2020-04-01 08:00:00 5.2 5 Sudeste 11 Sudeste 0 -- -- 99
2020-04-01 07:00:00 5.4 5 Sudeste 12 Sudeste 0 -- -- 99
2020-04-01 06:00:00 4.8 2 Sudeste 10 Sur 0.2 -- -- 99
2020-04-01 05:00:00 4.3 2 Norte 6 Sudeste 0.2 -- -- 99
2020-04-01 04:00:00 4.1 0 Calma 4 Noroeste 0.2 -- -- 99
2020-04-01 03:00:00 4.1 0 Calma 5 Noroeste 0 -- -- 98
2020-04-01 02:00:00 4.1 2 Noroeste 5 Noroeste 0 -- -- 97
2020-04-01 01:00:00 4.2 0 Calma 3 Oeste 0 -- -- 96
2020-04-01 00:00:00 4.2 0 Calma 4 Noroeste 0.2 -- -- 96
2020-03-31 23:00:00 4.3 0 Calma 3 Este 0 -- -- 95
2020-03-31 22:00:00 4.6 0 Calma 8 Norte 0 -- -- 92
2020-03-31 21:00:00 4.9 5 Norte 9 Noroeste 0 -- -- 89
2020-03-31 20:00:00 5.8 3 Norte 8 Noroeste 0.4 -- -- 88
2020-03-31 19:00:00 6.4 3 Norte 14 Noroeste 0 -- -- 81
2020-03-31 18:00:00 6.8 5 Noroeste 14 Noroeste 0 -- -- 77
2020-03-31 17:00:00 7 10 Noroeste 21 Noroeste 0 -- -- 74
2020-03-31 16:00:00 8 14 Noroeste 22 Noroeste 0 -- -- 68
2020-03-31 15:00:00 7.3 13 Noroeste 20 Noroeste 0 -- -- 74
2020-03-31 14:00:00 6.7 12 Noroeste 18 Noroeste 0 -- -- 72
2020-03-31 13:00:00 5.7 4 Sudeste 8 Sur 0 -- -- 72
2020-03-31 12:00:00 4.2 3 Sudeste 9 Sudeste 0 -- -- 66
2020-03-31 11:00:00 2 2 Noroeste 8 Noroeste 0 -- -- 77
2020-03-31 10:00:00 0.2 2 Sur 6 Sudeste 0 -- -- 91
2020-03-31 09:00:00 -0.9 2 Noroeste 9 Noroeste 0 -- -- 98
2020-03-31 08:00:00 -1 2 Norte 7 Noroeste 0 -- -- 97
2020-03-31 07:00:00 -1 2 Norte 5 Noroeste 0 -- -- 96
2020-03-31 06:00:00 -0.7 3 Noroeste 8 Noroeste 0 -- -- 97
2020-03-31 05:00:00 -0.7 3 Noroeste 6 Noroeste 0 -- -- 97
2020-03-31 04:00:00 -0.4 4 Norte 8 Noroeste 0 -- -- 97
2020-03-31 03:00:00 -0.2 4 Noroeste 6 Noroeste 0 -- -- 96
2020-03-31 02:00:00 -0.2 3 Norte 14 Norte 0 -- -- 96
2020-03-31 01:00:00 -0.1 8 Norte 13 Noroeste 0 -- -- 95
2020-03-31 00:00:00 -0.2 2 Noroeste 14 Norte 0.2 -- -- 95
2020-03-30 23:00:00 0 9 Norte 17 Norte 0.2 -- -- 94
2020-03-30 22:00:00 0.6 8 Norte 19 Noroeste 0 -- -- 86
2020-03-30 21:00:00 1.3 5 Norte 10 Sur 0 -- -- 76
2020-03-30 20:00:00 1.8 10 Oeste 22 Oeste 0 -- -- 66
2020-03-30 19:00:00 1.7 7 Sur 19 Sudeste 0.2 -- -- 65
2020-03-30 18:00:00 1.7 3 Nordeste 10 Noroeste 0.2 -- -- 77
2020-03-30 17:00:00 2.3 3 Noroeste 9 Noroeste 0.2 -- -- 78
2020-03-30 16:00:00 1.5 3 Noroeste 26 Oeste 0.6 -- -- 78
2020-03-30 15:00:00 1.8 6 Noroeste 18 Noroeste 0 -- -- 80
2020-03-30 14:00:00 2 3 Sudoeste 15 Noroeste 0 -- -- 74
2020-03-30 13:00:00 1.6 3 Sudeste 18 Norte 0.2 -- -- 80
2020-03-30 12:00:00 1 10 Noroeste 26 Noroeste 0.2 -- -- 90
2020-03-30 11:00:00 1.3 3 Sudeste 23 Oeste 1.4 -- -- 85
2020-03-30 10:00:00 0.2 7 Norte 15 Norte 0.4 -- -- 96
2020-03-30 09:00:00 0.5 4 Este 17 Noroeste 0.4 -- -- 92
2020-03-30 08:00:00 1.3 4 Norte 12 Noroeste 0.2 -- -- 88
2020-03-30 07:00:00 1.9 6 Noroeste 19 Noroeste 0 -- -- 79
2020-03-30 06:00:00 2.4 6 Norte 18 Oeste 0 -- -- 75
2020-03-30 05:00:00 2.6 3 Noroeste 14 Sudoeste 0 -- -- 80
2020-03-30 04:00:00 2.9 6 Noroeste 21 Oeste 0.2 -- -- 82
2020-03-30 03:00:00 3.4 0 Calma 17 Noroeste 0 -- -- 89
2020-03-30 02:00:00 3.9 3 Norte 15 Noroeste 0.2 -- -- 86
2020-03-30 01:00:00 4.5 3 Oeste 14 Noroeste 0 -- -- 86
2020-03-30 00:00:00 5 3 Noroeste 16 Noroeste 0 -- -- 88
2020-03-29 23:00:00 5.4 4 Noroeste 17 Oeste 0 -- -- 86
2020-03-29 22:00:00 6 4 Sudoeste 21 Noroeste 0 -- -- 84
2020-03-29 21:00:00 7.1 7 Noroeste 21 Noroeste 0 -- -- 82
2020-03-29 20:00:00 7.8 4 Sudoeste 19 Oeste 0 -- -- 68
2020-03-29 19:00:00 8.4 4 Sudoeste 18 Noroeste 0 -- -- 69
2020-03-29 18:00:00 8.9 9 Noroeste 22 Noroeste 0 -- -- 69
2020-03-29 17:00:00 10.1 7 Noroeste 13 Noroeste 0 -- -- 65
2020-03-29 16:00:00 10.2 9 Noroeste 16 Noroeste 0 -- -- 66
2020-03-29 15:00:00 9.5 7 Noroeste 10 Noroeste 0 -- -- 73
2020-03-29 14:00:00 8 3 Oeste 10 Noroeste 0 -- -- 77
2020-03-29 13:00:00 7.5 6 Noroeste 10 Noroeste 0 -- -- 82
2020-03-29 12:00:00 6.6 2 Noroeste 5 Norte 0 -- -- 84
2020-03-29 11:00:00 5.8 3 Sudeste 8 Sur 0 -- -- 85
2020-03-29 10:00:00 4.8 3 Sudeste 10 Sudeste 0 -- -- 87
2020-03-29 09:00:00 3.7 6 Sudeste 12 Sudeste 0 -- -- 89
2020-03-29 08:00:00 4 5 Sudeste 13 Sudeste 0 -- -- 91
2020-03-29 07:00:00 4.1 5 Sudeste 11 Sur 0 -- -- 92
2020-03-29 06:00:00 3.9 6 Sudeste 8 Sudeste 0 -- -- 91
2020-03-29 05:00:00 3.9 6 Sudeste 10 Sudeste 0 -- -- 90
2020-03-29 03:00:00 4.1 7 Sudeste 10 Sudeste 0 -- -- 91
2020-03-29 01:00:00 2.9 6 Sudeste 9 Sudeste 0 -- -- 94
2020-03-29 00:00:00 3.7 5 Sudeste 10 Sudeste 0 -- -- 91
2020-03-28 23:00:00 4.3 3 Sudeste 6 Sudeste 0 -- -- 91
2020-03-28 22:00:00 5.5 4 Sudeste 6 Sudeste 0 -- -- 87
2020-03-28 21:00:00 7.5 3 Oeste 7 Norte 0 -- -- 82
2020-03-28 20:00:00 9.3 2 Norte 13 Noroeste 0 -- -- 73
2020-03-28 19:00:00 11 8 Norte 22 Noroeste 0 -- -- 66
2020-03-28 18:00:00 12.3 11 Noroeste 23 Noroeste 0 -- -- 61
2020-03-28 17:00:00 14.9 13 Noroeste 24 Noroeste 0 -- -- 49
2020-03-28 16:00:00 15.8 13 Noroeste 24 Noroeste 0 -- -- 46
2020-03-28 15:00:00 15.8 15 Noroeste 27 Noroeste 0 -- -- 48
2020-03-28 14:00:00 15.5 16 Noroeste 28 Noroeste 0 -- -- 45
2020-03-28 13:00:00 15.5 14 Noroeste 22 Noroeste 0 -- -- 40
2020-03-28 12:00:00 14.9 12 Noroeste 18 Noroeste 0 -- -- 39
2020-03-28 11:00:00 12.7 9 Noroeste 13 Noroeste 0 -- -- 45
2020-03-28 10:00:00 5.7 2 Este 5 Este 0 -- -- 74
2020-03-28 09:00:00 1.4 3 Sudeste 11 Sudeste 0 -- -- 84
2020-03-28 08:00:00 0.4 7 Sudeste 12 Sudeste 0 -- -- 83
2020-03-28 07:00:00 0.6 2 Sudeste 13 Sudeste 0 -- -- 84
2020-03-28 06:00:00 0.5 3 Sudeste 10 Sudeste 0 -- -- 83
2020-03-28 05:00:00 0.5 5 Sudeste 9 Sudeste 0 -- -- 84
2020-03-28 04:00:00 0.9 3 Sudeste 9 Sudeste 0 -- -- 84
2020-03-28 03:00:00 1.2 4 Sudeste 10 Sudeste 0 -- -- 85
2020-03-28 02:00:00 2 8 Sudeste 11 Sudeste 0 -- -- 80
2020-03-28 01:00:00 2.1 5 Sudeste 10 Sudeste 0 -- -- 81
2020-03-28 00:00:00 2.3 4 Sudeste 10 Sudeste 0 -- -- 86
2020-03-27 23:00:00 3 5 Sudeste 10 Sudeste 0 -- -- 84
2020-03-27 22:00:00 4 5 Sudeste 10 Sudeste 0 -- -- 83
2020-03-27 21:00:00 5.1 5 Sudeste 8 Sudeste 0 -- -- 80
2020-03-27 20:00:00 7.2 3 Sudeste 13 Noroeste 0 -- -- 74
2020-03-27 19:00:00 9.3 7 Norte 18 Noroeste 0 -- -- 66
2020-03-27 18:00:00 10.2 11 Noroeste 27 Noroeste 0 -- -- 60
2020-03-27 17:00:00 12.4 13 Noroeste 24 Noroeste 0 -- -- 52
2020-03-27 16:00:00 14 14 Noroeste 28 Noroeste 0 -- -- 46
2020-03-27 15:00:00 13.5 16 Noroeste 27 Noroeste 0 -- -- 45
2020-03-27 14:00:00 13.7 14 Noroeste 24 Noroeste 0 -- -- 42
2020-03-27 13:00:00 13 12 Noroeste 28 Sur 0 -- -- 39
2020-03-27 12:00:00 10.6 10 Noroeste 14 Noroeste 0 -- -- 46
2020-03-27 11:00:00 8 3 Este 9 Noroeste 0 -- -- 48
2020-03-27 10:00:00 2.6 4 Nordeste 7 Nordeste 0 -- -- 79
2020-03-27 09:00:00 -1 5 Sudeste 10 Sudeste 0 -- -- 85
2020-03-27 08:00:00 -1.8 3 Sudeste 7 Sudeste 0 -- -- 87
2020-03-27 07:00:00 -1.6 6 Sudeste 9 Sudeste 0 -- -- 85
2020-03-27 06:00:00 -1.4 3 Sudeste 9 Sudeste 0 -- -- 86
2020-03-27 05:00:00 -0.9 4 Sudeste 9 Sudeste 0 -- -- 85
2020-03-27 04:00:00 -0.2 5 Sudeste 9 Sudeste 0 -- -- 83
2020-03-27 03:00:00 1.1 0 Calma 6 Nordeste 0 -- -- 79
2020-03-27 02:00:00 3 3 Este 5 Norte 0 -- -- 76
2020-03-27 01:00:00 3.8 5 Noroeste 17 Oeste 0 -- -- 73
2020-03-27 00:00:00 4 5 Noroeste 18 Noroeste 0 -- -- 76
2020-03-26 23:00:00 4.5 6 Noroeste 17 Noroeste 0 -- -- 79
2020-03-26 22:00:00 4.9 8 Norte 15 Norte 0 -- -- 77
2020-03-26 21:00:00 5.5 7 Norte 20 Oeste 0 -- -- 73
2020-03-26 20:00:00 6.4 7 Noroeste 21 Noroeste 0 -- -- 69
2020-03-26 19:00:00 7.2 13 Oeste 26 Oeste 0 -- -- 63
2020-03-26 18:00:00 8.5 10 Noroeste 28 Oeste 0 -- -- 60
2020-03-26 17:00:00 9.4 7 Noroeste 32 Oeste 0 -- -- 54
2020-03-26 16:00:00 10.5 11 Noroeste 29 Noroeste 0 -- -- 56
2020-03-26 15:00:00 10.8 14 Noroeste 27 Noroeste 0 -- -- 53
2020-03-26 14:00:00 11.3 13 Noroeste 27 Noroeste 0 -- -- 49
2020-03-26 13:00:00 10.3 13 Noroeste 25 Noroeste 0 -- -- 59
2020-03-26 12:00:00 7.7 12 Noroeste 21 Noroeste 0 -- -- 64
2020-03-26 11:00:00 7.8 9 Noroeste 14 Noroeste 0 -- -- 65
2020-03-26 10:00:00 4.4 4 Nordeste 8 Nordeste 0 -- -- 80
2020-03-26 09:00:00 0.4 5 Sudeste 10 Sudeste 0 -- -- 81
2020-03-26 08:00:00 -0.4 5 Sudeste 12 Sudeste 0 -- -- 80
2020-03-26 07:00:00 -1.1 5 Sudeste 10 Sudeste 0 -- -- 84
2020-03-26 06:00:00 -0.6 3 Sudeste 8 Sudeste 0 -- -- 87
2020-03-26 05:00:00 0.3 4 Sudeste 8 Sudeste 0 -- -- 88
2020-03-26 04:00:00 0.9 5 Sudeste 8 Sudeste 0 -- -- 88
2020-03-26 03:00:00 2.1 4 Sudeste 9 Sudeste 0 -- -- 84
2020-03-26 02:00:00 2.2 6 Sudeste 8 Sudeste 0 -- -- 90
2020-03-26 01:00:00 2.9 3 Sudeste 6 Sudeste 0 -- -- 92
2020-03-26 00:00:00 3.8 3 Sudeste 9 Sudeste 0 -- -- 91
2020-03-25 23:00:00 4.2 3 Sudeste 8 Sudeste 0 -- -- 90
2020-03-25 22:00:00 5 3 Sudeste 7 Sudeste 0 -- -- 88
2020-03-25 21:00:00 6.8 3 Sudeste 5 Norte 0 -- -- 82
2020-03-25 20:00:00 9.7 4 Norte 18 Norte 0 -- -- 71
2020-03-25 19:00:00 11.4 12 Norte 22 Noroeste 0 -- -- 60
2020-03-25 18:00:00 12.9 11 Noroeste 25 Noroeste 0 -- -- 48
2020-03-25 17:00:00 14.9 13 Noroeste 27 Noroeste 0 -- -- 37
2020-03-25 16:00:00 17.3 13 Noroeste 37 Noroeste 0 -- -- 43
2020-03-25 15:00:00 16.9 14 Noroeste 33 Oeste 0 -- -- 36
2020-03-25 14:00:00 16.6 15 Noroeste 28 Noroeste 0 -- -- 39
2020-03-25 13:00:00 15.9 15 Noroeste 26 Noroeste 0 -- -- 51
2020-03-25 12:00:00 15.4 12 Noroeste 22 Noroeste 0 -- -- 53
2020-03-25 11:00:00 13.8 11 Noroeste 15 Noroeste 0 -- -- 68
2020-03-25 10:00:00 8.3 0 Calma 6 Sudeste 0 -- -- 95
2020-03-25 09:00:00 5.6 7 Sudeste 11 Sudeste 0 -- -- 94
2020-03-25 08:00:00 4.7 6 Sudeste 10 Sudeste 0 -- -- 95
2020-03-25 07:00:00 4.6 7 Sudeste 10 Sudeste 0 -- -- 95
2020-03-25 06:00:00 4.9 7 Sudeste 12 Sudeste 0 -- -- 94
2020-03-25 05:00:00 4.4 5 Sudeste 9 Sudeste 0 -- -- 96
2020-03-25 04:00:00 5.1 4 Sudeste 9 Sudeste 0 -- -- 95
2020-03-25 03:00:00 5.6 5 Sudeste 10 Sudeste 0 -- -- 92
2020-03-25 02:00:00 5.9 6 Sudeste 10 Sudeste 0 -- -- 91
2020-03-25 01:00:00 6.4 3 Sudeste 11 Sudeste 0 -- -- 91
2020-03-25 00:00:00 7.2 7 Sudeste 10 Sudeste 0 -- -- 90
2020-03-24 23:00:00 7.9 6 Sudeste 10 Sudeste 0 -- -- 89
2020-03-24 22:00:00 9 4 Sudeste 8 Sudeste 0 -- -- 87
2020-03-24 21:00:00 10.1 5 Sudeste 8 Sudeste 0 -- -- 82
2020-03-24 20:00:00 12.8 2 Norte 11 Noroeste 0 -- -- 71
2020-03-24 19:00:00 14.2 6 Norte 13 Noroeste 0 -- -- 68
2020-03-24 18:00:00 15 6 Noroeste 12 Noroeste 0 -- -- 61
2020-03-24 17:00:00 16.2 5 Noroeste 24 Noroeste 0 -- -- 57
2020-03-24 16:00:00 17.3 6 Noroeste 22 Noroeste 0 -- -- 51
2020-03-24 15:00:00 17.7 13 Noroeste 26 Noroeste 0 -- -- 52
2020-03-24 14:00:00 19.3 10 Noroeste 19 Noroeste 0 -- -- 45
2020-03-24 13:00:00 18.3 5 Sur 18 Sudeste 0 -- -- 40
2020-03-24 12:00:00 16.6 6 Noroeste 13 Oeste 0 -- -- 50
2020-03-24 11:00:00 14.8 5 Noroeste 10 Noroeste 0 -- -- 54
2020-03-24 10:00:00 10.1 4 Este 12 Sudeste 0 -- -- 74
2020-03-24 09:00:00 5.1 5 Sudeste 11 Sudeste 0 -- -- 96
2020-03-24 08:00:00 3.9 4 Sudeste 9 Sudeste 0 -- -- 99
2020-03-24 07:00:00 3.8 0 Calma 9 Sudeste 0 -- -- 98
2020-03-24 06:00:00 4.1 4 Sudeste 8 Sudeste 0 -- -- 98
2020-03-24 05:00:00 4.9 4 Sudeste 10 Sudeste 0 -- -- 98
2020-03-24 04:00:00 5.2 2 Sudeste 6 Sur 0 -- -- 96
2020-03-24 03:00:00 6.2 4 Sudeste 8 Sudeste 0 -- -- 96
2020-03-24 02:00:00 7 3 Sudeste 6 Sudeste 0 -- -- 93
2020-03-24 01:00:00 8.1 0 Calma 5 Noroeste 0 -- -- 95
2020-03-24 00:00:00 8.2 3 Norte 6 Noroeste 0 -- -- 94
2020-03-23 23:00:00 8.7 2 Norte 7 Norte 0 -- -- 93
2020-03-23 22:00:00 8.9 2 Norte 6 Norte 0 -- -- 91
2020-03-23 21:00:00 9.3 4 Norte 9 Norte 0 -- -- 89
2020-03-23 20:00:00 9.8 6 Norte 12 Noroeste 0 -- -- 85
2020-03-23 19:00:00 10.7 5 Norte 12 Noroeste 0 -- -- 80
2020-03-23 18:00:00 11.3 3 Noroeste 12 Noroeste 0 -- -- 77
2020-03-23 17:00:00 12 7 Noroeste 14 Oeste 0 -- -- 74
2020-03-23 16:00:00 13 8 Norte 21 Noroeste 0 -- -- 70
2020-03-23 15:00:00 13.5 13 Noroeste 25 Noroeste 0 -- -- 67
2020-03-23 14:00:00 14.7 13 Noroeste 21 Noroeste 0 -- -- 62
2020-03-23 13:00:00 13.8 6 Noroeste 14 Noroeste 0 -- -- 61
2020-03-23 12:00:00 12.7 7 Noroeste 12 Noroeste 0 -- -- 65
2020-03-23 11:00:00 11.1 4 Noroeste 9 Oeste 0 -- -- 66
2020-03-23 10:00:00 8.3 3 Sudeste 10 Sudeste 0 -- -- 75
2020-03-23 09:00:00 6.7 4 Sudeste 12 Sur 0 -- -- 82
2020-03-23 08:00:00 5.8 4 Sudeste 13 Sur 0 -- -- 85
2020-03-23 07:00:00 4.8 6 Sudeste 12 Sudeste 0 -- -- 86
2020-03-23 06:00:00 4.5 6 Sudeste 13 Sudeste 0 -- -- 88
2020-03-23 05:00:00 4 6 Sudeste 12 Sudeste 0 -- -- 92
2020-03-23 04:00:00 3.9 4 Sudeste 8 Sudeste 0 -- -- 94
2020-03-23 03:00:00 5 6 Sudeste 8 Sudeste 0 -- -- 92
2020-03-23 02:00:00 6.6 3 Sudeste 6 Este 0 -- -- 93
2020-03-23 01:00:00 7.7 0 Calma 3 Noroeste 0 -- -- 92
2020-03-23 00:00:00 7.9 0 Calma 5 Noroeste 0 -- -- 95
2020-03-22 23:00:00 8 0 Calma 3 Noroeste 0 -- -- 94
2020-03-22 22:00:00 8.3 2 Noroeste 7 Nordeste 0 -- -- 92
2020-03-22 21:00:00 9.2 4 Norte 14 Norte 0 -- -- 88
2020-03-22 20:00:00 10.1 7 Norte 14 Noroeste 0 -- -- 83
2020-03-22 19:00:00 10.7 9 Norte 24 Noroeste 0 -- -- 82
2020-03-22 18:00:00 12.1 9 Noroeste 21 Noroeste 0 -- -- 75
2020-03-22 17:00:00 13.7 7 Noroeste 29 Noroeste 0 -- -- 68
2020-03-22 16:00:00 14.5 8 Noroeste 21 Noroeste 0 -- -- 65
2020-03-22 15:00:00 15.6 16 Noroeste 26 Noroeste 0 -- -- 66
2020-03-22 14:00:00 15.4 14 Noroeste 24 Noroeste 0 -- -- 69
2020-03-22 13:00:00 14.3 12 Noroeste 17 Noroeste 0 -- -- 72
2020-03-22 12:00:00 12.7 8 Noroeste 15 Noroeste 0 -- -- 81
2020-03-22 11:00:00 11.3 9 Noroeste 12 Noroeste 0 -- -- 90
2020-03-22 10:00:00 8.5 0 Calma 6 Noroeste 0 -- -- 100
2020-03-22 09:00:00 7.7 2 Norte 5 Noroeste 0 -- -- 100
2020-03-22 08:00:00 7.4 0 Calma 6 Sudeste 0 -- -- 99
2020-03-22 07:00:00 7.5 3 Sudeste 5 Sudeste 0 -- -- 100
2020-03-22 06:00:00 7.5 3 Nordeste 6 Sudeste 0 -- -- 99
2020-03-22 05:00:00 7.3 4 Sudeste 6 Sudeste 0 -- -- 99
2020-03-22 04:00:00 7.6 0 Calma 5 Sudeste 0 -- -- 98
2020-03-22 03:00:00 8 0 Calma 9 Sudeste 0.2 -- -- 99
2020-03-22 02:00:00 8.1 0 Calma 6 Noroeste 0 -- -- 99
2020-03-22 01:00:00 8.2 0 Calma 5 Este 0 -- -- 97
2020-03-22 00:00:00 9.4 4 Sudeste 6 Sudeste 0.2 -- -- 97
2020-03-21 23:00:00 9.5 0 Calma 4 Sudeste 0 -- -- 96
2020-03-21 22:00:00 9.9 0 Calma 2 Sudeste 0 -- -- 94
2020-03-21 21:00:00 10.4 0 Calma 2 Norte 0 -- -- 93
2020-03-21 20:00:00 10.9 0 Calma 11 Norte 0 -- -- 91
2020-03-21 19:00:00 11.7 5 Noroeste 8 Noroeste 0 -- -- 88
2020-03-21 18:00:00 11.5 3 Este 8 Oeste 0 -- -- 88
2020-03-21 17:00:00 11.1 2 Norte 10 Este 0 -- -- 90
2020-03-21 16:00:00 11.4 7 Sudeste 25 Sudoeste 5.4 -- -- 83
2020-03-21 15:00:00 17 12 Noroeste 22 Noroeste 0 -- -- 56
2020-03-21 14:00:00 17.6 12 Noroeste 20 Noroeste 0 -- -- 55
2020-03-21 13:00:00 18.2 13 Noroeste 20 Noroeste 0 -- -- 53
2020-03-21 12:00:00 17.2 7 Noroeste 13 Noroeste 0 -- -- 53
2020-03-21 11:00:00 15.6 2 Sur 15 Sudeste 0 -- -- 52
2020-03-21 10:00:00 12.9 6 Sudeste 18 Sudeste 0 -- -- 59
2020-03-21 09:00:00 11.2 3 Sudeste 14 Sudeste 0 -- -- 67
2020-03-21 08:00:00 11.2 7 Sudeste 26 Sudeste 0 -- -- 67
2020-03-21 07:00:00 11.2 6 Sudeste 19 Sudeste 0 -- -- 68
2020-03-21 06:00:00 11 4 Sudeste 17 Sudeste 0 -- -- 71
2020-03-21 05:00:00 9.1 0 Calma 4 Norte 0 -- -- 88
2020-03-21 04:00:00 9.3 0 Calma 9 Noroeste 0 -- -- 86
2020-03-21 03:00:00 9.4 2 Sudeste 8 Sudeste 0 -- -- 87
2020-03-21 02:00:00 9.6 3 Sudeste 8 Noroeste 0 -- -- 85
2020-03-21 01:00:00 9.5 2 Norte 6 Noroeste 0 -- -- 85
2020-03-21 00:00:00 10 4 Noroeste 12 Noroeste 0 -- -- 81
2020-03-20 23:00:00 9.7 4 Norte 9 Noroeste 0 -- -- 83
2020-03-20 22:00:00 10.1 2 Noroeste 10 Sur 0 -- -- 82
2020-03-20 21:00:00 9.6 3 Sudeste 10 Sudeste 0 -- -- 82
2020-03-20 20:00:00 10.6 2 Sudeste 12 Sudeste 0 -- -- 74
2020-03-20 19:00:00 13.6 3 Sudeste 15 Sudeste 0 -- -- 65
2020-03-20 18:00:00 14.4 2 Este 10 Sudeste 0 -- -- 63
2020-03-20 17:00:00 14.9 4 Noroeste 13 Sudeste 0 -- -- 60
2020-03-20 16:00:00 14.8 5 Sur 17 Sudeste 0 -- -- 58
2020-03-20 15:00:00 14.6 8 Sudeste 25 Sudeste 0 -- -- 58
2020-03-20 14:00:00 13.8 6 Sudeste 24 Sudeste 0 -- -- 62
2020-03-20 13:00:00 12.9 12 Sudeste 34 Sur 0 -- -- 65
2020-03-20 12:00:00 12.9 8 Sudeste 22 Sudeste 0 -- -- 64
2020-03-20 11:00:00 13.2 6 Este 25 Sudeste 0 -- -- 64
2020-03-20 10:00:00 12.3 2 Norte 14 Sudeste 0 -- -- 67
2020-03-20 09:00:00 12.2 6 Sur 22 Sur 0 -- -- 64
2020-03-20 08:00:00 11.3 6 Sudeste 22 Sudeste 0 -- -- 67
2020-03-20 07:00:00 11.1 7 Sudeste 21 Sudeste 0 -- -- 67
2020-03-20 06:00:00 8.8 6 Sudeste 20 Sur 0 -- -- 76
2020-03-20 05:00:00 8.6 0 Calma 14 Este 0 -- -- 79
2020-03-20 04:00:00 10.8 5 Este 18 Sudeste 0 -- -- 66
2020-03-20 03:00:00 7.5 5 Sudeste 12 Sudeste 0 -- -- 81
2020-03-20 02:00:00 7.3 3 Sudeste 12 Sudeste 0 -- -- 85
2020-03-20 01:00:00 7.5 0 Calma 8 Sudeste 0 -- -- 84
2020-03-20 00:00:00 8.3 4 Sudeste 13 Sudeste 0 -- -- 80
2020-03-19 23:00:00 8.7 7 Sudeste 13 Sudeste 0 -- -- 82
2020-03-19 22:00:00 8.1 5 Sudeste 12 Sudeste 0 -- -- 90
2020-03-19 21:00:00 8.8 4 Sudeste 8 Sudeste 0 -- -- 89
2020-03-19 20:00:00 10.1 5 Sudeste 7 Sudeste 0 -- -- 89
2020-03-19 19:00:00 11.7 3 Sudeste 9 Sudeste 0 -- -- 87
2020-03-19 18:00:00 11.7 3 Norte 17 Sudeste 0.2 -- -- 89
2020-03-19 17:00:00 13.1 9 Sudeste 20 Este 1.2 -- -- 73
2020-03-19 16:00:00 17.6 8 Norte 24 Noroeste 0 -- -- 54
2020-03-19 15:00:00 20.9 5 Oeste 12 Sudoeste 0 -- -- 44
2020-03-19 14:00:00 21.8 2 Sur 16 Sur 0 -- -- 35
2020-03-19 13:00:00 20.2 8 Sudeste 21 Sur 0 -- -- 42
2020-03-19 12:00:00 19.4 7 Sudeste 17 Sudeste 0 -- -- 43
2020-03-19 11:00:00 18.1 5 Este 15 Sudeste 0 -- -- 48
2020-03-19 10:00:00 15.6 8 Sudeste 26 Sur 0 -- -- 54
2020-03-19 09:00:00 13.7 7 Sur 21 Sur 0 -- -- 60
2020-03-19 08:00:00 10.1 5 Sudeste 18 Sudeste 0 -- -- 76
2020-03-19 07:00:00 6.8 2 Sudeste 10 Sudeste 0 -- -- 91
2020-03-19 06:00:00 7.4 4 Sudeste 10 Sudeste 0 -- -- 89
2020-03-19 05:00:00 8 3 Sudeste 9 Sudeste 0 -- -- 89
2020-03-19 04:00:00 8.7 0 Calma 9 Noroeste 0 -- -- 87
2020-03-19 03:00:00 9.5 4 Norte 11 Noroeste 0 -- -- 81
2020-03-19 02:00:00 8.1 2 Sur 9 Sudeste 0 -- -- 87
2020-03-19 01:00:00 8.8 4 Sudeste 13 Sudeste 0 -- -- 84
2020-03-19 00:00:00 8.6 6 Sudeste 13 Sudeste 0 -- -- 86
2020-03-18 23:00:00 8.5 5 Sudeste 12 Sur 0 -- -- 88
2020-03-18 22:00:00 9.5 5 Sudeste 11 Sudeste 0 -- -- 85
2020-03-18 21:00:00 10.3 5 Sudeste 9 Sudeste 0 -- -- 83
2020-03-18 20:00:00 11.9 6 Sudeste 10 Sudeste 0 -- -- 79
2020-03-18 19:00:00 15.5 4 Norte 14 Norte 0 -- -- 70
2020-03-18 18:00:00 16.8 8 Norte 21 Noroeste 0 -- -- 63
2020-03-18 17:00:00 18.4 12 Noroeste 20 Noroeste 0 -- -- 58
2020-03-18 16:00:00 20 11 Noroeste 18 Noroeste 0 -- -- 49
2020-03-18 15:00:00 20 9 Noroeste 19 Noroeste 0 -- -- 51
2020-03-18 14:00:00 19.6 12 Noroeste 18 Noroeste 0 -- -- 51
2020-03-18 13:00:00 19.1 5 Noroeste 10 Noroeste 0 -- -- 50
2020-03-18 12:00:00 17.3 6 Noroeste 9 Noroeste 0 -- -- 57
2020-03-18 11:00:00 14.3 3 Sudeste 6 Sudeste 0 -- -- 62
2020-03-18 10:00:00 9.4 0 Calma 8 Sudeste 0 -- -- 86
2020-03-18 09:00:00 7.5 5 Sudeste 13 Este 0 -- -- 82
2020-03-18 08:00:00 8.4 9 Este 17 Este 0 -- -- 77
2020-03-18 07:00:00 6.2 5 Este 12 Este 0 -- -- 88
2020-03-18 06:00:00 5.5 5 Sudeste 10 Este 0 -- -- 91
2020-03-18 05:00:00 6.1 6 Este 10 Este 0 -- -- 93
2020-03-18 04:00:00 4.7 0 Calma 9 Sudeste 0 -- -- 97
2020-03-18 03:00:00 5 3 Sudeste 7 Sudeste 0 -- -- 96
2020-03-18 02:00:00 5.2 3 Este 11 Sudeste 0 -- -- 96
2020-03-18 01:00:00 5.1 2 Nordeste 10 Este 0 -- -- 97
2020-03-18 00:00:00 5.1 2 Sudeste 9 Nordeste 0 -- -- 95
2020-03-17 23:00:00 5 0 Calma 8 Sudeste 0 -- -- 95
2020-03-17 22:00:00 5.4 0 Calma 11 Sur 0 -- -- 93
2020-03-17 21:00:00 6.3 4 Sudeste 12 Sudeste 0 -- -- 88
2020-03-17 20:00:00 7.5 4 Sudeste 12 Sudeste 0 -- -- 84
2020-03-17 19:00:00 9.7 5 Sudeste 12 Sudeste 0 -- -- 77
2020-03-17 18:00:00 11.4 6 Sudeste 10 Sudeste 0 -- -- 71
2020-03-17 17:00:00 12.5 5 Noroeste 10 Noroeste 0 -- -- 70
2020-03-17 16:00:00 13.3 2 Sudoeste 7 Sur 0 -- -- 61
2020-03-17 15:00:00 11.7 3 Noroeste 8 Noroeste 0 -- -- 67
2020-03-17 14:00:00 10.9 3 Este 9 Sur 0 -- -- 67
2020-03-17 13:00:00 10.6 3 Sudoeste 10 Noroeste 0 -- -- 68
2020-03-17 12:00:00 8.9 3 Noroeste 9 Noroeste 0 -- -- 73
2020-03-17 11:00:00 6.4 6 Sur 10 Sur 0 -- -- 78
2020-03-17 10:00:00 4.6 4 Sudeste 9 Sur 0 -- -- 84
2020-03-17 09:00:00 3.3 5 Sudeste 10 Este 0 -- -- 93
2020-03-17 08:00:00 2.2 2 Norte 8 Sur 0 -- -- 100
2020-03-17 07:00:00 2 4 Sudeste 6 Sudeste 0 -- -- 100
2020-03-17 06:00:00 1.9 0 Calma 10 Sudeste 0 -- -- 100
2020-03-17 05:00:00 1.6 2 Sudeste 9 Sudeste 0 -- -- 100
2020-03-17 04:00:00 1.7 2 Sudoeste 7 Sudeste 0 -- -- 99
2020-03-17 03:00:00 2.3 0 Calma 6 Sudeste 0 -- -- 100
2020-03-17 02:00:00 2.3 0 Calma 5 Sudeste 0 -- -- 100
2020-03-17 01:00:00 2.3 0 Calma 4 Sudeste 0.2 -- -- 99
2020-03-17 00:00:00 2.4 2 Sudeste 8 Sudeste 0 -- -- 99
2020-03-16 23:00:00 2.6 2 Sudeste 9 Este 0 -- -- 98
2020-03-16 22:00:00 2.7 4 Sudeste 14 Norte 0 -- -- 98
2020-03-16 21:00:00 2.9 4 Norte 13 Norte 0.2 -- -- 97
2020-03-16 20:00:00 3.1 4 Sudeste 20 Sudoeste 0.6 -- -- 94
2020-03-16 19:00:00 3.5 9 Norte 18 Norte 0.4 -- -- 94
2020-03-16 18:00:00 3.8 8 Norte 19 Norte 0.2 -- -- 92
2020-03-16 17:00:00 4.2 10 Norte 22 Noroeste 0.2 -- -- 90
2020-03-16 16:00:00 5.3 11 Noroeste 28 Oeste 1 -- -- 83
2020-03-16 15:00:00 5.2 9 Noroeste 26 Oeste 0.2 -- -- 86
2020-03-16 14:00:00 4.1 9 Norte 20 Norte 0.6 -- -- 90
2020-03-16 13:00:00 3.5 10 Norte 22 Norte 0.6 -- -- 93
2020-03-16 12:00:00 2.7 9 Noroeste 22 Noroeste 1.4 -- -- 95
2020-03-16 11:00:00 1.6 10 Noroeste 18 Noroeste 4.6 -- -- 98
2020-03-16 10:00:00 1.3 5 Norte 14 Noroeste 4 -- -- 99
2020-03-16 09:00:00 0.6 0 Calma 8 Norte 1 -- -- 100
2020-03-16 08:00:00 0.4 6 Norte 10 Norte 0.2 -- -- 100
2020-03-16 07:00:00 0.3 5 Norte 9 Noroeste 1.2 -- -- 100
2020-03-16 06:00:00 0.2 7 Noroeste 12 Norte 0.6 -- -- 100
2020-03-16 05:00:00 0.2 0 Calma 5 Noroeste 1.2 -- -- 100
2020-03-16 04:00:00 0.1 3 Norte 5 Noroeste 1 -- -- 100
2020-03-16 03:00:00 0.2 3 Noroeste 5 Noroeste 2 -- -- 100
2020-03-16 02:00:00 0.2 2 Norte 5 Noroeste 2 -- -- 100
2020-03-16 01:00:00 0.2 3 Noroeste 5 Norte 2 -- -- 100
2020-03-16 00:00:00 0.3 3 Norte 7 Noroeste 2 -- -- 100
2020-03-15 23:00:00 0.2 4 Norte 9 Norte 1.8 -- -- 99
2020-03-15 22:00:00 0.4 5 Norte 12 Noroeste 1.6 -- -- 98
2020-03-15 21:00:00 1.3 4 Norte 17 Noroeste 1.4 -- -- 96
2020-03-15 20:00:00 2.6 10 Norte 22 Noroeste 1 -- -- 95
2020-03-15 19:00:00 3.9 11 Norte 21 Norte 1 -- -- 94
2020-03-15 18:00:00 5.3 8 Noroeste 19 Noroeste 0.2 -- -- 91
2020-03-15 17:00:00 7.1 12 Norte 24 Noroeste 0 -- -- 87
2020-03-15 16:00:00 10.5 12 Noroeste 22 Noroeste 0 -- -- 76
2020-03-15 15:00:00 13 17 Noroeste 29 Noroeste 0 -- -- 62
2020-03-15 14:00:00 13.4 17 Noroeste 27 Noroeste 0 -- -- 62
2020-03-15 13:00:00 12.1 17 Norte 33 Noroeste 0 -- -- 70
2020-03-15 12:00:00 13.1 14 Norte 29 Noroeste 0 -- -- 61
2020-03-15 11:00:00 13.4 5 Noroeste 13 Sudeste 0 -- -- 56
2020-03-15 10:00:00 6 3 Este 8 Norte 0 -- -- 83
2020-03-15 09:00:00 4.3 4 Noroeste 12 Noroeste 0 -- -- 76
2020-03-15 08:00:00 4.9 3 Sudeste 10 Sudeste 0 -- -- 74
2020-03-15 07:00:00 6.4 2 Sudeste 15 Sudeste 0 -- -- 66
2020-03-15 06:00:00 6.6 8 Sudeste 14 Sudeste 0 -- -- 63
2020-03-15 05:00:00 6.7 8 Sudeste 14 Sudeste 0 -- -- 66
2020-03-15 04:00:00 6.1 6 Este 15 Sudeste 0 -- -- 69
2020-03-15 03:00:00 5.8 6 Sudeste 14 Sudeste 0 -- -- 75
2020-03-15 02:00:00 5.1 8 Sudeste 13 Sudeste 0 -- -- 80
2020-03-15 01:00:00 4.5 4 Sudeste 11 Sudeste 0 -- -- 86
2020-03-15 00:00:00 5 6 Sudeste 12 Sudeste 0 -- -- 83
2020-03-14 23:00:00 5.2 6 Sudeste 11 Sudeste 0 -- -- 84
2020-03-14 22:00:00 5.8 4 Sudeste 11 Sudeste 0 -- -- 86
2020-03-14 21:00:00 6.7 6 Sudeste 12 Sudeste 0 -- -- 83
2020-03-14 20:00:00 7.8 7 Sudeste 11 Sudeste 0 -- -- 79
2020-03-14 19:00:00 9.9 7 Sudeste 11 Norte 0 -- -- 73
2020-03-14 18:00:00 12.5 5 Norte 22 Noroeste 0 -- -- 67
2020-03-14 17:00:00 13.9 13 Noroeste 22 Noroeste 0 -- -- 54
2020-03-14 16:00:00 16.5 14 Noroeste 21 Noroeste 0 -- -- 48
2020-03-14 15:00:00 16.3 14 Noroeste 21 Noroeste 0 -- -- 49
2020-03-14 14:00:00 15.5 6 Noroeste 12 Noroeste 0 -- -- 46
2020-03-14 13:00:00 13.6 6 Noroeste 11 Noroeste 0 -- -- 48
2020-03-14 12:00:00 11.3 8 Noroeste 11 Noroeste 0 -- -- 57
2020-03-14 11:00:00 8.5 6 Noroeste 12 Noroeste 0 -- -- 69
2020-03-14 10:00:00 2.2 2 Este 9 Sudeste 0 -- -- 95
2020-03-14 09:00:00 0.6 7 Sudeste 10 Sudeste 0 -- -- 94
2020-03-14 08:00:00 0.1 7 Sudeste 11 Sudeste 0 -- -- 94
2020-03-14 07:00:00 0.1 4 Sudeste 10 Sudeste 0 -- -- 94
2020-03-14 06:00:00 0.6 5 Sudeste 9 Sudeste 0 -- -- 93
2020-03-14 05:00:00 1.4 6 Sudeste 9 Sudeste 0 -- -- 92
2020-03-14 04:00:00 3 5 Sudeste 11 Sudeste 0 -- -- 87
2020-03-14 03:00:00 2.8 4 Sudeste 11 Sudeste 0 -- -- 91
2020-03-14 02:00:00 2.4 5 Sudeste 10 Sudeste 0 -- -- 93
2020-03-14 01:00:00 3.2 4 Sudeste 10 Sudeste 0 -- -- 91
2020-03-14 00:00:00 4.6 3 Sudeste 10 Sudeste 0 -- -- 88
2020-03-13 23:00:00 6.6 3 Sudeste 8 Sudeste 0 -- -- 87
2020-03-13 22:00:00 6.5 0 Calma 5 Sudeste 0 -- -- 94
2020-03-13 21:00:00 6.5 0 Calma 8 Sudeste 0 -- -- 92
2020-03-13 20:00:00 5.8 0 Calma 9 Sudeste 0 -- -- 91
2020-03-13 19:00:00 8.3 0 Calma 9 Noroeste 0 -- -- 82
2020-03-13 18:00:00 9.1 6 Noroeste 15 Norte 0 -- -- 82
2020-03-13 17:00:00 9.6 10 Noroeste 18 Noroeste 0 -- -- 77
2020-03-13 16:00:00 9.9 6 Noroeste 17 Noroeste 0 -- -- 76
2020-03-13 15:00:00 9.9 9 Noroeste 15 Noroeste 0 -- -- 76
2020-03-13 14:00:00 9.5 9 Noroeste 18 Noroeste 0 -- -- 80
2020-03-13 13:00:00 9.4 9 Noroeste 16 Noroeste 0 -- -- 76
2020-03-13 12:00:00 9.5 9 Noroeste 15 Noroeste 0 -- -- 79
2020-03-13 11:00:00 8.2 4 Noroeste 8 Oeste 0 -- -- 84
2020-03-13 10:00:00 6.4 3 Noroeste 5 Noroeste 0 -- -- 94
2020-03-13 09:00:00 5.6 4 Noroeste 6 Noroeste 0 -- -- 100
2020-03-13 08:00:00 5.3 2 Noroeste 7 Norte 0 -- -- 99
2020-03-13 07:00:00 5.5 3 Norte 6 Norte 0 -- -- 99
2020-03-13 06:00:00 5.7 3 Norte 9 Norte 0 -- -- 99
2020-03-13 05:00:00 5.8 6 Norte 11 Noroeste 0 -- -- 99
2020-03-13 04:00:00 6 6 Norte 12 Norte 0 -- -- 99
2020-03-13 03:00:00 6.1 7 Norte 11 Noroeste 0 -- -- 99
2020-03-13 02:00:00 6.2 6 Norte 12 Noroeste 0 -- -- 100
2020-03-13 01:00:00 6.4 6 Norte 12 Noroeste 0 -- -- 99
2020-03-13 00:00:00 6.6 7 Norte 13 Norte 0 -- -- 99
2020-03-12 23:00:00 6.9 7 Norte 13 Norte 0 -- -- 99
2020-03-12 22:00:00 7.1 7 Norte 12 Norte 0 -- -- 99
2020-03-12 21:00:00 7.3 6 Norte 12 Norte 0 -- -- 100
2020-03-12 20:00:00 7.3 8 Norte 13 Norte 0.2 -- -- 100
2020-03-12 19:00:00 7.5 7 Norte 12 Norte 0.2 -- -- 99
2020-03-12 18:00:00 7.7 5 Noroeste 12 Noroeste 0.2 -- -- 98
2020-03-12 17:00:00 7.9 6 Norte 16 Norte 0.2 -- -- 98
2020-03-12 16:00:00 8.7 9 Norte 19 Norte 0 -- -- 96
2020-03-12 15:00:00 10.1 9 Noroeste 13 Noroeste 0 -- -- 93
2020-03-12 14:00:00 10 3 Noroeste 9 Noroeste 0 -- -- 94
2020-03-12 13:00:00 9.3 6 Norte 13 Noroeste 0 -- -- 97
2020-03-12 12:00:00 9.5 7 Norte 12 Noroeste 0 -- -- 95
2020-03-12 11:00:00 9.2 5 Norte 10 Noroeste 0 -- -- 96
2020-03-12 10:00:00 9.4 5 Norte 9 Norte 0 -- -- 96
2020-03-12 09:00:00 9.4 4 Noroeste 8 Oeste 0 -- -- 95
2020-03-12 08:00:00 9.5 3 Este 10 Sudeste 0 -- -- 88
2020-03-12 07:00:00 9.2 3 Este 7 Este 0 -- -- 92
2020-03-12 06:00:00 9.1 3 Sudeste 6 Sudeste 0 -- -- 95
2020-03-12 05:00:00 9 3 Sudeste 5 Sudeste 0 -- -- 97
2020-03-12 04:00:00 9 0 Calma 4 Noroeste 0 -- -- 99
2020-03-12 03:00:00 9 3 Noroeste 5 Noroeste 0 -- -- 98
2020-03-12 02:00:00 9.2 3 Noroeste 5 Noroeste 0 -- -- 96
2020-03-12 01:00:00 9.2 3 Noroeste 4 Noroeste 0 -- -- 95
2020-03-12 00:00:00 9 0 Calma 6 Noroeste 0 -- -- 97
2020-03-11 23:00:00 7.8 2 Sur 6 Sur 0 -- -- 95
2020-03-11 22:00:00 8.4 2 Sudeste 6 Sudeste 0 -- -- 93
2020-03-11 21:00:00 9.7 2 Sur 4 Sudeste 0 -- -- 88
2020-03-11 20:00:00 12.1 2 Sur 13 Norte 0 -- -- 80
2020-03-11 19:00:00 13.9 5 Norte 10 Norte 0 -- -- 77
2020-03-11 18:00:00 16.7 5 Norte 17 Noroeste 0 -- -- 64
2020-03-11 17:00:00 17.8 10 Noroeste 24 Noroeste 0 -- -- 59
2020-03-11 16:00:00 20.4 14 Noroeste 29 Noroeste 0 -- -- 53
2020-03-11 15:00:00 20.5 14 Noroeste 27 Noroeste 0 -- -- 50
2020-03-11 14:00:00 20.1 11 Noroeste 19 Noroeste 0 -- -- 47
2020-03-11 13:00:00 18.7 8 Noroeste 15 Noroeste 0 -- -- 50
2020-03-11 12:00:00 16.6 6 Noroeste 12 Noroeste 0 -- -- 51
2020-03-11 11:00:00 13.9 6 Noroeste 10 Noroeste 0 -- -- 60
2020-03-11 10:00:00 7.9 6 Sudeste 11 Sudeste 0 -- -- 77
2020-03-11 09:00:00 4.8 6 Sudeste 11 Sudeste 0 -- -- 90
2020-03-11 08:00:00 4.1 3 Sudeste 10 Sudeste 0 -- -- 90
2020-03-11 07:00:00 4.8 5 Sudeste 14 Sudeste 0 -- -- 85
2020-03-11 06:00:00 5 8 Sudeste 13 Sudeste 0 -- -- 85
2020-03-11 05:00:00 4.3 2 Sudeste 8 Sudeste 0 -- -- 92
2020-03-11 04:00:00 4.7 7 Sudeste 11 Sudeste 0 -- -- 88
2020-03-11 03:00:00 5.1 6 Sudeste 13 Sudeste 0 -- -- 88
2020-03-11 02:00:00 4.9 6 Sudeste 11 Sudeste 0 -- -- 92
2020-03-11 01:00:00 5.1 6 Sudeste 10 Sudeste 0 -- -- 93
2020-03-11 00:00:00 5.7 3 Sudeste 11 Sudeste 0 -- -- 92
2020-03-10 23:00:00 6.2 6 Sudeste 9 Sudeste 0 -- -- 92
2020-03-10 22:00:00 7.3 2 Sudeste 11 Sudeste 0 -- -- 88
2020-03-10 21:00:00 8.7 7 Sudeste 10 Sudeste 0 -- -- 84
2020-03-10 20:00:00 9.6 6 Sudeste 10 Sudeste 0 -- -- 81
2020-03-10 19:00:00 11.4 5 Sur 8 Sudeste 0 -- -- 77
2020-03-10 18:00:00 13.4 6 Sudeste 9 Sudeste 0 -- -- 69
2020-03-10 17:00:00 16.9 3 Noroeste 21 Noroeste 0 -- -- 51
2020-03-10 16:00:00 19.2 12 Noroeste 19 Noroeste 0 -- -- 49
2020-03-10 15:00:00 17.8 10 Noroeste 21 Noroeste 0 -- -- 52
2020-03-10 14:00:00 18.1 13 Noroeste 26 Noroeste 0 -- -- 49
2020-03-10 13:00:00 18.6 4 Noroeste 11 Noroeste 0 -- -- 50
2020-03-10 12:00:00 17.5 2 Sur 6 Oeste 0 -- -- 49
2020-03-10 11:00:00 14.4 5 Norte 13 Noroeste 0 -- -- 55
2020-03-10 10:00:00 11.5 5 Noroeste 11 Noroeste 0 -- -- 80
2020-03-10 09:00:00 6.8 2 Sudeste 9 Sudeste 0 -- -- 92
2020-03-10 08:00:00 5.9 0 Calma 10 Sudeste 0 -- -- 90
2020-03-10 07:00:00 6 3 Sudeste 10 Sur 0 -- -- 87
2020-03-10 06:00:00 7.4 9 Sudeste 14 Sudeste 0 -- -- 76
2020-03-10 05:00:00 6.2 9 Sudeste 13 Sudeste 0 -- -- 76
2020-03-10 04:00:00 6.3 6 Sudeste 12 Sudeste 0 -- -- 70
2020-03-10 03:00:00 6.3 9 Sudeste 12 Sur 0 -- -- 67
2020-03-10 02:00:00 5.9 6 Sudeste 10 Sudeste 0 -- -- 73
2020-03-10 01:00:00 5.7 3 Sudeste 13 Sudeste 0 -- -- 78
2020-03-10 00:00:00 6 7 Sudeste 13 Sudeste 0 -- -- 73
2020-03-09 23:00:00 6 8 Sudeste 13 Sudeste 0 -- -- 75
2020-03-09 22:00:00 5.6 6 Sudeste 10 Sudeste 0 -- -- 77
2020-03-09 21:00:00 6.4 6 Sudeste 10 Sudeste 0 -- -- 70
2020-03-09 20:00:00 7.4 5 Sudeste 10 Sudeste 0 -- -- 66
2020-03-09 19:00:00 8.9 6 Sudeste 9 Este 0 -- -- 63
2020-03-09 18:00:00 9.5 4 Sudeste 6 Sudeste 0 -- -- 66
2020-03-09 17:00:00 11.7 3 Sur 9 Oeste 0 -- -- 53
2020-03-09 16:00:00 11.8 5 Noroeste 16 Noroeste 0 -- -- 53
2020-03-09 15:00:00 11.6 10 Noroeste 16 Noroeste 0 -- -- 53
2020-03-09 14:00:00 11.4 9 Noroeste 15 Noroeste 0 -- -- 54
2020-03-09 13:00:00 10.6 9 Noroeste 17 Noroeste 0 -- -- 54
2020-03-09 12:00:00 10.3 9 Noroeste 21 Noroeste 0 -- -- 58
2020-03-09 11:00:00 9.3 6 Norte 18 Noroeste 0 -- -- 60
2020-03-09 10:00:00 5.5 6 Sudeste 10 Sudeste 0 -- -- 82
2020-03-09 09:00:00 4.2 4 Sudeste 8 Sudeste 0 -- -- 86
2020-03-09 08:00:00 4.6 0 Calma 10 Norte 0 -- -- 91
2020-03-09 07:00:00 4.7 2 Norte 4 Norte 0 -- -- 94
2020-03-09 06:00:00 4.9 0 Calma 4 Sudeste 0 -- -- 93
2020-03-09 05:00:00 5.1 0 Calma 3 Sur 0 -- -- 93
2020-03-09 04:00:00 5.1 0 Calma 3 Noroeste 0 -- -- 92
2020-03-09 03:00:00 5.5 2 Nordeste 4 Noroeste 0 -- -- 89
2020-03-09 02:00:00 6 0 Calma 14 Norte 0 -- -- 85
2020-03-09 01:00:00 7.3 10 Norte 18 Noroeste 0 -- -- 77
2020-03-09 00:00:00 7.7 5 Norte 17 Noroeste 0 -- -- 75